createdAt,value
2023-04-22T00:00:07.000Z,0
2023-04-22T00:01:23.000Z,0
2023-04-22T00:02:40.000Z,0
2023-04-22T00:03:56.000Z,0
2023-04-22T00:05:12.000Z,0
2023-04-22T00:06:29.000Z,0
2023-04-22T00:07:45.000Z,0
2023-04-22T00:09:02.000Z,0
2023-04-22T00:10:18.000Z,0
2023-04-22T00:11:35.000Z,0
2023-04-22T00:12:51.000Z,0
2023-04-22T00:14:08.000Z,0
2023-04-22T00:15:25.000Z,0
2023-04-22T00:16:41.000Z,0
2023-04-22T00:17:58.000Z,0
2023-04-22T00:19:14.000Z,0
2023-04-22T00:20:30.000Z,0
2023-04-22T00:21:47.000Z,0
2023-04-22T00:23:03.000Z,0
2023-04-22T00:24:20.000Z,0
2023-04-22T00:25:36.000Z,0
2023-04-22T00:26:53.000Z,0
2023-04-22T00:28:09.000Z,0
2023-04-22T00:29:26.000Z,0
2023-04-22T00:30:42.000Z,0
2023-04-22T00:31:59.000Z,0
2023-04-22T00:33:15.000Z,0
2023-04-22T00:34:32.000Z,0
2023-04-22T00:35:48.000Z,0
2023-04-22T00:37:04.000Z,0
2023-04-22T00:38:21.000Z,0
2023-04-22T00:39:37.000Z,0
2023-04-22T00:40:54.000Z,0
2023-04-22T00:42:10.000Z,0
2023-04-22T00:43:27.000Z,0
2023-04-22T00:44:43.000Z,0
2023-04-22T00:45:59.000Z,0
2023-04-22T00:47:16.000Z,0
2023-04-22T00:48:32.000Z,0
2023-04-22T00:49:49.000Z,0
2023-04-22T00:51:05.000Z,0
2023-04-22T00:52:22.000Z,0
2023-04-22T00:53:39.000Z,0
2023-04-22T00:54:55.000Z,0
2023-04-22T00:56:12.000Z,0
2023-04-22T00:57:28.000Z,0
2023-04-22T00:58:45.000Z,0
2023-04-22T01:00:01.000Z,0
2023-04-22T01:01:18.000Z,0
2023-04-22T01:02:34.000Z,0
2023-04-22T01:03:50.000Z,0
2023-04-22T01:05:07.000Z,0
2023-04-22T01:06:23.000Z,0
2023-04-22T01:07:40.000Z,0
2023-04-22T01:08:56.000Z,0
2023-04-22T01:10:13.000Z,0
2023-04-22T01:11:29.000Z,0
2023-04-22T01:12:46.000Z,0
2023-04-22T01:14:02.000Z,0
2023-04-22T01:15:19.000Z,0
2023-04-22T01:16:35.000Z,0
2023-04-22T01:17:52.000Z,0
2023-04-22T01:19:09.000Z,0
2023-04-22T01:20:24.000Z,0
2023-04-22T01:21:41.000Z,0
2023-04-22T01:22:57.000Z,0
2023-04-22T01:24:14.000Z,0
2023-04-22T01:25:30.000Z,0
2023-04-22T01:26:47.000Z,0
2023-04-22T01:28:04.000Z,0
2023-04-22T01:29:20.000Z,0
2023-04-22T01:30:37.000Z,0
2023-04-22T01:31:53.000Z,0
2023-04-22T01:33:10.000Z,0
2023-04-22T01:34:26.000Z,0
2023-04-22T01:35:43.000Z,0
2023-04-22T01:36:59.000Z,0
2023-04-22T01:38:15.000Z,0
2023-04-22T01:39:32.000Z,0
2023-04-22T01:40:48.000Z,0
2023-04-22T01:42:05.000Z,0
2023-04-22T01:43:21.000Z,0
2023-04-22T01:44:38.000Z,0
2023-04-22T01:45:54.000Z,0
2023-04-22T01:47:11.000Z,0
2023-04-22T01:48:27.000Z,0
2023-04-22T01:49:44.000Z,0
2023-04-22T01:51:00.000Z,0
2023-04-22T01:52:17.000Z,0
2023-04-22T01:53:33.000Z,0
2023-04-22T01:54:49.000Z,0
2023-04-22T01:56:06.000Z,0
2023-04-22T01:57:22.000Z,0
2023-04-22T01:58:39.000Z,0
2023-04-22T01:59:55.000Z,0
2023-04-22T02:01:12.000Z,0
2023-04-22T02:02:29.000Z,0
2023-04-22T02:03:45.000Z,0
2023-04-22T02:05:02.000Z,0
2023-04-22T02:06:18.000Z,0
2023-04-22T02:07:35.000Z,0
2023-04-22T02:08:51.000Z,0
2023-04-22T02:10:07.000Z,0
2023-04-22T02:11:24.000Z,0
2023-04-22T02:12:40.000Z,0
2023-04-22T02:13:57.000Z,0
2023-04-22T02:15:13.000Z,0
2023-04-22T02:16:30.000Z,0
2023-04-22T02:17:46.000Z,0
2023-04-22T02:19:03.000Z,0
2023-04-22T02:20:19.000Z,0
2023-04-22T02:21:36.000Z,0
2023-04-22T02:22:52.000Z,0
2023-04-22T02:24:09.000Z,0
2023-04-22T02:25:25.000Z,0
2023-04-22T02:26:41.000Z,0
2023-04-22T02:27:58.000Z,0
2023-04-22T02:29:14.000Z,0
2023-04-22T02:30:31.000Z,0
2023-04-22T02:31:47.000Z,0
2023-04-22T02:33:04.000Z,0
2023-04-22T02:34:21.000Z,0
2023-04-22T02:35:37.000Z,0
2023-04-22T02:36:54.000Z,0
2023-04-22T02:38:10.000Z,0
2023-04-22T02:39:27.000Z,0
2023-04-22T02:40:43.000Z,0
2023-04-22T02:42:00.000Z,0
2023-04-22T02:43:16.000Z,0
2023-04-22T02:44:32.000Z,0
2023-04-22T02:45:49.000Z,0
2023-04-22T02:47:05.000Z,0
2023-04-22T02:48:22.000Z,0
2023-04-22T02:49:38.000Z,0
2023-04-22T02:50:55.000Z,0
2023-04-22T02:52:11.000Z,0
2023-04-22T02:53:28.000Z,0
2023-04-22T02:54:44.000Z,0
2023-04-22T02:56:01.000Z,0
2023-04-22T02:57:17.000Z,0
2023-04-22T02:58:34.000Z,0
2023-04-22T02:59:50.000Z,0
2023-04-22T03:01:06.000Z,0
2023-04-22T03:02:23.000Z,0
2023-04-22T03:03:39.000Z,0
2023-04-22T03:04:56.000Z,0
2023-04-22T03:06:12.000Z,0
2023-04-22T03:07:29.000Z,0
2023-04-22T03:08:46.000Z,0
2023-04-22T03:10:02.000Z,0
2023-04-22T03:11:19.000Z,0
2023-04-22T03:12:35.000Z,0
2023-04-22T03:13:52.000Z,0
2023-04-22T03:15:08.000Z,0
2023-04-22T03:16:24.000Z,0
2023-04-22T03:17:41.000Z,0
2023-04-22T03:18:57.000Z,0
2023-04-22T03:20:14.000Z,0
2023-04-22T03:21:30.000Z,0
2023-04-22T03:22:47.000Z,0
2023-04-22T03:24:03.000Z,0
2023-04-22T03:25:20.000Z,0
2023-04-22T03:26:36.000Z,0
2023-04-22T03:27:53.000Z,0
2023-04-22T03:29:09.000Z,0
2023-04-22T03:30:26.000Z,0
2023-04-22T03:31:42.000Z,0
2023-04-22T03:32:58.000Z,0
2023-04-22T03:34:15.000Z,0
2023-04-22T03:35:31.000Z,0
2023-04-22T03:36:48.000Z,0
2023-04-22T03:38:04.000Z,0
2023-04-22T03:39:21.000Z,0
2023-04-22T03:40:37.000Z,0
2023-04-22T03:41:54.000Z,0
2023-04-22T03:44:27.000Z,0
2023-04-22T03:45:44.000Z,0
2023-04-22T03:47:00.000Z,0
2023-04-22T03:48:17.000Z,0
2023-04-22T03:49:33.000Z,0
2023-04-22T03:50:49.000Z,0
2023-04-22T03:52:06.000Z,0
2023-04-22T03:53:22.000Z,0
2023-04-22T03:54:39.000Z,0
2023-04-22T03:55:55.000Z,0
2023-04-22T03:57:12.000Z,0
2023-04-22T03:58:28.000Z,0
2023-04-22T03:59:45.000Z,0
2023-04-22T04:01:01.000Z,0
2023-04-22T04:02:18.000Z,0
2023-04-22T04:03:34.000Z,0
2023-04-22T04:04:51.000Z,0
2023-04-22T04:06:07.000Z,0
2023-04-22T04:07:23.000Z,0
2023-04-22T04:08:40.000Z,0
2023-04-22T04:09:56.000Z,0
2023-04-22T04:11:13.000Z,0
2023-04-22T04:12:29.000Z,0
2023-04-22T04:13:46.000Z,5
2023-04-22T04:15:03.000Z,5
2023-04-22T04:16:19.000Z,5
2023-04-22T04:17:36.000Z,5
2023-04-22T04:18:52.000Z,11
2023-04-22T04:20:09.000Z,11
2023-04-22T04:21:25.000Z,11
2023-04-22T04:22:41.000Z,16
2023-04-22T04:23:58.000Z,16
2023-04-22T04:25:14.000Z,22
2023-04-22T04:26:31.000Z,22
2023-04-22T04:29:04.000Z,28
2023-04-22T04:31:37.000Z,33
2023-04-22T04:32:53.000Z,39
2023-04-22T04:34:10.000Z,39
2023-04-22T04:35:26.000Z,45
2023-04-22T04:36:43.000Z,50
2023-04-22T04:37:59.000Z,50
2023-04-22T04:39:15.000Z,56
2023-04-22T04:40:32.000Z,61
2023-04-22T04:41:48.000Z,73
2023-04-22T04:43:05.000Z,84
2023-04-22T04:44:21.000Z,90
2023-04-22T04:45:38.000Z,95
2023-04-22T04:48:11.000Z,118
2023-04-22T04:49:27.000Z,129
2023-04-22T04:55:49.000Z,146
2023-04-22T04:57:05.000Z,151
2023-04-22T04:58:22.000Z,157
2023-04-22T04:59:38.000Z,168
2023-04-22T05:02:11.000Z,202
2023-04-22T05:03:27.000Z,213
2023-04-22T05:06:00.000Z,253
2023-04-22T05:07:16.000Z,275
2023-04-22T05:08:33.000Z,298
2023-04-22T05:11:06.000Z,348
2023-04-22T05:12:22.000Z,376
2023-04-22T05:13:38.000Z,399
2023-04-22T05:14:54.000Z,433
2023-04-22T05:16:11.000Z,450
2023-04-22T05:17:27.000Z,466
2023-04-22T05:21:17.000Z,528
2023-04-22T05:22:33.000Z,540
2023-04-22T05:23:50.000Z,573
2023-04-22T05:25:06.000Z,708
2023-04-22T05:26:23.000Z,663
2023-04-22T05:30:13.000Z,781
2023-04-22T05:34:02.000Z,669
2023-04-22T05:35:18.000Z,613
2023-04-22T05:36:35.000Z,562
2023-04-22T05:39:08.000Z,568
2023-04-22T05:40:24.000Z,579
2023-04-22T05:45:30.000Z,585
2023-04-22T05:46:47.000Z,585
2023-04-22T05:48:03.000Z,590
2023-04-22T05:49:20.000Z,596
2023-04-22T05:51:53.000Z,708
2023-04-22T05:53:09.000Z,748
2023-04-22T05:54:25.000Z,646
2023-04-22T05:56:58.000Z,686
2023-04-22T05:58:15.000Z,691
2023-04-22T05:59:31.000Z,765
2023-04-22T06:00:48.000Z,759
2023-04-22T06:02:05.000Z,967
2023-04-22T06:05:54.000Z,956
2023-04-22T06:07:11.000Z,1237
2023-04-22T06:08:27.000Z,1327
2023-04-22T06:09:43.000Z,1406
2023-04-22T06:11:00.000Z,1496
2023-04-22T06:12:16.000Z,1501
2023-04-22T06:13:33.000Z,1507
2023-04-22T06:16:06.000Z,1462
2023-04-22T06:17:22.000Z,1355
2023-04-22T06:18:39.000Z,1293
2023-04-22T06:30:08.000Z,1710
2023-04-22T06:31:24.000Z,1670
2023-04-22T06:33:56.000Z,1434
2023-04-22T06:35:13.000Z,1434
2023-04-22T06:36:30.000Z,1518
2023-04-22T06:37:46.000Z,1693
2023-04-22T06:39:03.000Z,1777
2023-04-22T06:40:19.000Z,1867
2023-04-22T06:42:52.000Z,2030
2023-04-22T06:44:09.000Z,2047
2023-04-22T06:46:42.000Z,1726
2023-04-22T06:50:31.000Z,2030
2023-04-22T06:53:04.000Z,1473
2023-04-22T06:54:20.000Z,1355
2023-04-22T06:55:37.000Z,1653
2023-04-22T06:56:53.000Z,1710
2023-04-22T07:03:16.000Z,2244
2023-04-22T07:07:06.000Z,2660
2023-04-22T07:08:22.000Z,2649
2023-04-22T07:09:38.000Z,2621
2023-04-22T07:13:28.000Z,2761
2023-04-22T07:14:44.000Z,2891
2023-04-22T07:16:01.000Z,3262
2023-04-22T07:17:17.000Z,3549
2023-04-22T07:18:34.000Z,3015
2023-04-22T07:19:50.000Z,3082
2023-04-22T07:22:23.000Z,3065
2023-04-22T07:23:40.000Z,3234
2023-04-22T07:24:56.000Z,2874
2023-04-22T07:26:12.000Z,3448
2023-04-22T07:28:45.000Z,3009
2023-04-22T07:31:18.000Z,2981
2023-04-22T07:32:35.000Z,3127
2023-04-22T07:35:08.000Z,2936
2023-04-22T07:36:25.000Z,3026
2023-04-22T07:38:58.000Z,3048
2023-04-22T07:41:31.000Z,3138
2023-04-22T07:44:03.000Z,2784
2023-04-22T07:45:20.000Z,3015
2023-04-22T07:49:09.000Z,3262
2023-04-22T07:50:26.000Z,3318
2023-04-22T07:52:59.000Z,3037
2023-04-22T07:54:15.000Z,2936
2023-04-22T07:55:32.000Z,3009
2023-04-22T07:58:05.000Z,3015
2023-04-22T07:59:21.000Z,3256
2023-04-22T08:01:54.000Z,3155
2023-04-22T08:03:10.000Z,2851
2023-04-22T08:04:27.000Z,2846
2023-04-22T08:05:43.000Z,3048
2023-04-22T08:07:00.000Z,3037
2023-04-22T08:09:33.000Z,3510
2023-04-22T08:10:50.000Z,3510
2023-04-22T08:12:06.000Z,3408
2023-04-22T08:13:23.000Z,3082
2023-04-22T08:14:39.000Z,2840
2023-04-22T08:15:55.000Z,3043
2023-04-22T08:17:12.000Z,3256
2023-04-22T08:18:28.000Z,3206
2023-04-22T08:23:34.000Z,3262
2023-04-22T08:24:51.000Z,3121
2023-04-22T08:28:40.000Z,3155
2023-04-22T08:29:57.000Z,3498
2023-04-22T08:31:13.000Z,3487
2023-04-22T08:33:46.000Z,3549
2023-04-22T08:36:19.000Z,3346
2023-04-22T08:37:35.000Z,3020
2023-04-22T08:38:52.000Z,3133
2023-04-22T08:40:08.000Z,2913
2023-04-22T08:42:42.000Z,3105
2023-04-22T08:47:48.000Z,3369
2023-04-22T08:50:20.000Z,3498
2023-04-22T08:51:37.000Z,3645
2023-04-22T08:52:53.000Z,2761
2023-04-22T08:54:10.000Z,2345
2023-04-22T08:55:26.000Z,2458
2023-04-22T08:56:43.000Z,2486
2023-04-22T08:57:59.000Z,2148
2023-04-22T08:59:16.000Z,2244
2023-04-22T09:00:32.000Z,2131
2023-04-22T09:01:49.000Z,2255
2023-04-22T09:04:22.000Z,2025
2023-04-22T09:08:11.000Z,4218
2023-04-22T09:09:27.000Z,4831
2023-04-22T09:10:44.000Z,4770
2023-04-22T09:12:00.000Z,3481
2023-04-22T09:14:33.000Z,3380
2023-04-22T09:15:50.000Z,3712
2023-04-22T09:18:23.000Z,4426
2023-04-22T09:19:39.000Z,4449
2023-04-22T09:20:55.000Z,4556
2023-04-22T09:22:12.000Z,4342
2023-04-22T09:23:29.000Z,4725
2023-04-22T09:28:35.000Z,5180
2023-04-22T09:31:08.000Z,4910
2023-04-22T09:32:24.000Z,5068
2023-04-22T09:34:57.000Z,5113
2023-04-22T09:37:30.000Z,3577
2023-04-22T09:38:46.000Z,3633
2023-04-22T09:40:03.000Z,4376
2023-04-22T09:41:19.000Z,5805
2023-04-22T09:45:09.000Z,6001
2023-04-22T09:47:42.000Z,4539
2023-04-22T09:48:59.000Z,4595
2023-04-22T09:51:32.000Z,2745
2023-04-22T10:03:00.000Z,2356
2023-04-22T10:05:33.000Z,2548
2023-04-22T10:06:49.000Z,2778
2023-04-22T10:08:06.000Z,2919
2023-04-22T10:09:22.000Z,2649
2023-04-22T10:14:28.000Z,3718
2023-04-22T10:15:44.000Z,4511
2023-04-22T10:17:01.000Z,4888
2023-04-22T10:19:34.000Z,4522
2023-04-22T10:22:07.000Z,3600
2023-04-22T10:23:24.000Z,4078
2023-04-22T10:24:40.000Z,4381
2023-04-22T10:25:56.000Z,4066
2023-04-22T10:27:12.000Z,5000
2023-04-22T10:28:29.000Z,4876
2023-04-22T10:31:02.000Z,4483
2023-04-22T10:33:35.000Z,5293
2023-04-22T10:34:52.000Z,4545
2023-04-22T10:37:25.000Z,4348
2023-04-22T10:41:14.000Z,4736
2023-04-22T10:42:30.000Z,2829
2023-04-22T10:45:03.000Z,3718
2023-04-22T10:46:20.000Z,3116
2023-04-22T10:47:36.000Z,3009
2023-04-22T10:48:53.000Z,3116
2023-04-22T10:50:09.000Z,3290
2023-04-22T10:51:26.000Z,3195
2023-04-22T10:52:42.000Z,3217
2023-04-22T10:53:59.000Z,4584
2023-04-22T10:56:32.000Z,4471
2023-04-22T10:57:49.000Z,4286
2023-04-22T10:59:04.000Z,3841
2023-04-22T11:00:21.000Z,3448
2023-04-22T11:01:37.000Z,4263
2023-04-22T11:02:54.000Z,3571
2023-04-22T11:04:11.000Z,3976
2023-04-22T11:06:44.000Z,4224
2023-04-22T11:08:00.000Z,3588
2023-04-22T11:11:50.000Z,4539
2023-04-22T11:13:06.000Z,4376
2023-04-22T11:15:39.000Z,3335
2023-04-22T11:16:55.000Z,3031
2023-04-22T11:18:12.000Z,2835
2023-04-22T11:19:28.000Z,2733
2023-04-22T11:20:45.000Z,2857
2023-04-22T11:22:01.000Z,2891
2023-04-22T11:24:34.000Z,3223
2023-04-22T11:25:51.000Z,4573
2023-04-22T11:28:24.000Z,5405
2023-04-22T11:29:41.000Z,5979
2023-04-22T11:30:57.000Z,5698
2023-04-22T11:32:14.000Z,5388
2023-04-22T11:33:29.000Z,5383
2023-04-22T11:34:46.000Z,5456
2023-04-22T11:36:03.000Z,5118
2023-04-22T11:37:19.000Z,4983
2023-04-22T11:38:36.000Z,5028
2023-04-22T11:39:52.000Z,4083
2023-04-22T11:41:09.000Z,4263
2023-04-22T11:43:42.000Z,3830
2023-04-22T11:44:58.000Z,3481
2023-04-22T11:46:15.000Z,4719
2023-04-22T11:48:48.000Z,4966
2023-04-22T11:50:04.000Z,4938
2023-04-22T11:51:20.000Z,3915
2023-04-22T11:52:37.000Z,3155
2023-04-22T11:55:10.000Z,2941
2023-04-22T11:56:26.000Z,3082
2023-04-22T11:57:43.000Z,3616
2023-04-22T11:58:59.000Z,3065
2023-04-22T12:00:16.000Z,3808
2023-04-22T12:02:49.000Z,2210
2023-04-22T12:04:06.000Z,2283
2023-04-22T12:05:22.000Z,3538
2023-04-22T12:06:39.000Z,3678
2023-04-22T12:07:55.000Z,3420
2023-04-22T12:09:11.000Z,2688
2023-04-22T12:10:28.000Z,2688
2023-04-22T12:11:44.000Z,2745
2023-04-22T12:13:01.000Z,3273
2023-04-22T12:14:17.000Z,4083
2023-04-22T12:15:34.000Z,2278
2023-04-22T12:16:50.000Z,2115
2023-04-22T12:19:23.000Z,2098
2023-04-22T12:20:40.000Z,1861
2023-04-22T12:21:56.000Z,1698
2023-04-22T12:23:13.000Z,1755
2023-04-22T12:24:29.000Z,1726
2023-04-22T12:25:45.000Z,1653
2023-04-22T12:27:02.000Z,1569
2023-04-22T12:28:18.000Z,1490
2023-04-22T12:29:34.000Z,1501
2023-04-22T12:30:50.000Z,1546
2023-04-22T12:32:07.000Z,1535
2023-04-22T12:33:23.000Z,1428
2023-04-22T12:34:40.000Z,1282
2023-04-22T12:35:56.000Z,1119
2023-04-22T12:37:13.000Z,1006
2023-04-22T12:38:29.000Z,928
2023-04-22T12:39:46.000Z,911
2023-04-22T12:41:02.000Z,928
2023-04-22T12:42:19.000Z,950
2023-04-22T12:44:51.000Z,939
2023-04-22T12:46:07.000Z,939
2023-04-22T12:47:24.000Z,939
2023-04-22T12:49:57.000Z,956
2023-04-22T12:52:29.000Z,956
2023-04-22T12:53:45.000Z,945
2023-04-22T12:55:01.000Z,939
2023-04-22T12:56:17.000Z,945
2023-04-22T12:57:34.000Z,995
2023-04-22T12:58:50.000Z,1051
2023-04-22T13:00:07.000Z,1130
2023-04-22T13:01:24.000Z,1198
2023-04-22T13:02:40.000Z,1271
2023-04-22T13:03:57.000Z,1350
2023-04-22T13:05:13.000Z,1445
2023-04-22T13:06:30.000Z,1513
2023-04-22T13:07:46.000Z,1535
2023-04-22T13:09:01.000Z,1451
2023-04-22T13:10:18.000Z,1361
2023-04-22T13:11:34.000Z,1282
2023-04-22T13:12:51.000Z,1209
2023-04-22T13:14:08.000Z,1175
2023-04-22T13:15:24.000Z,1203
2023-04-22T13:16:41.000Z,1265
2023-04-22T13:17:57.000Z,1333
2023-04-22T13:19:14.000Z,1395
2023-04-22T13:20:30.000Z,1440
2023-04-22T13:21:46.000Z,1530
2023-04-22T13:23:02.000Z,1608
2023-04-22T13:24:18.000Z,1653
2023-04-22T13:25:35.000Z,1670
2023-04-22T13:26:52.000Z,1530
2023-04-22T13:28:08.000Z,1378
2023-04-22T13:29:25.000Z,1243
2023-04-22T13:30:41.000Z,1158
2023-04-22T13:31:58.000Z,1119
2023-04-22T13:33:14.000Z,1085
2023-04-22T13:34:31.000Z,1046
2023-04-22T13:35:47.000Z,950
2023-04-22T13:37:03.000Z,826
2023-04-22T13:38:20.000Z,725
2023-04-22T13:39:36.000Z,663
2023-04-22T13:40:53.000Z,652
2023-04-22T13:42:09.000Z,675
2023-04-22T13:43:26.000Z,703
2023-04-22T13:44:42.000Z,720
2023-04-22T13:45:59.000Z,725
2023-04-22T13:47:15.000Z,714
2023-04-22T13:48:32.000Z,686
2023-04-22T13:49:49.000Z,652
2023-04-22T13:51:05.000Z,630
2023-04-22T13:52:21.000Z,635
2023-04-22T13:53:37.000Z,641
2023-04-22T13:54:54.000Z,652
2023-04-22T13:56:10.000Z,652
2023-04-22T13:57:27.000Z,658
2023-04-22T13:58:44.000Z,669
2023-04-22T14:00:00.000Z,675
2023-04-22T14:01:17.000Z,669
2023-04-22T14:02:33.000Z,658
2023-04-22T14:03:50.000Z,646
2023-04-22T14:05:06.000Z,630
2023-04-22T14:06:23.000Z,596
2023-04-22T14:07:39.000Z,551
2023-04-22T14:08:56.000Z,517
2023-04-22T14:10:12.000Z,489
2023-04-22T14:11:28.000Z,472
2023-04-22T14:12:45.000Z,472
2023-04-22T14:14:01.000Z,500
2023-04-22T14:15:18.000Z,551
2023-04-22T14:16:34.000Z,590
2023-04-22T14:17:51.000Z,652
2023-04-22T14:20:24.000Z,849
2023-04-22T14:21:40.000Z,1018
2023-04-22T14:22:57.000Z,1175
2023-04-22T14:24:14.000Z,1305
2023-04-22T14:25:30.000Z,1395
2023-04-22T14:26:46.000Z,1440
2023-04-22T14:28:02.000Z,1428
2023-04-22T14:29:19.000Z,1389
2023-04-22T14:30:36.000Z,1372
2023-04-22T14:31:52.000Z,1355
2023-04-22T14:33:09.000Z,1333
2023-04-22T14:34:25.000Z,1327
2023-04-22T14:35:42.000Z,1389
2023-04-22T14:36:58.000Z,1479
2023-04-22T14:38:15.000Z,1575
2023-04-22T14:39:31.000Z,1760
2023-04-22T14:40:48.000Z,1935
2023-04-22T14:42:04.000Z,1923
2023-04-22T14:43:21.000Z,2030
2023-04-22T14:44:37.000Z,1996
2023-04-22T14:45:53.000Z,1985
2023-04-22T14:47:10.000Z,2086
2023-04-22T14:48:26.000Z,2137
2023-04-22T14:49:43.000Z,2593
2023-04-22T14:50:59.000Z,2103
2023-04-22T14:52:16.000Z,2520
2023-04-22T14:53:32.000Z,4230
2023-04-22T14:54:49.000Z,3397
2023-04-22T14:56:06.000Z,3431
2023-04-22T14:57:22.000Z,2660
2023-04-22T14:58:39.000Z,1794
2023-04-22T14:59:55.000Z,1597
2023-04-22T15:01:12.000Z,1513
2023-04-22T15:02:27.000Z,1462
2023-04-22T15:03:44.000Z,1440
2023-04-22T15:05:01.000Z,1305
2023-04-22T15:06:17.000Z,1203
2023-04-22T15:07:34.000Z,1130
2023-04-22T15:08:50.000Z,1085
2023-04-22T15:10:07.000Z,1040
2023-04-22T15:11:23.000Z,1029
2023-04-22T15:12:40.000Z,1046
2023-04-22T15:13:56.000Z,1080
2023-04-22T15:15:13.000Z,1108
2023-04-22T15:16:29.000Z,1119
2023-04-22T15:17:46.000Z,1113
2023-04-22T15:19:02.000Z,1091
2023-04-22T15:20:18.000Z,1063
2023-04-22T15:21:35.000Z,1035
2023-04-22T15:22:51.000Z,1029
2023-04-22T15:24:08.000Z,1051
2023-04-22T15:25:24.000Z,1080
2023-04-22T15:26:41.000Z,1091
2023-04-22T15:27:57.000Z,1063
2023-04-22T15:29:14.000Z,1046
2023-04-22T15:30:31.000Z,1029
2023-04-22T15:31:47.000Z,1018
2023-04-22T15:33:04.000Z,1012
2023-04-22T15:34:20.000Z,978
2023-04-22T15:35:36.000Z,945
2023-04-22T15:36:53.000Z,916
2023-04-22T15:38:09.000Z,888
2023-04-22T15:39:26.000Z,871
2023-04-22T15:40:42.000Z,843
2023-04-22T15:41:59.000Z,810
2023-04-22T15:43:15.000Z,765
2023-04-22T15:44:32.000Z,736
2023-04-22T15:45:48.000Z,725
2023-04-22T15:47:05.000Z,731
2023-04-22T15:48:21.000Z,748
2023-04-22T15:49:38.000Z,759
2023-04-22T15:50:54.000Z,736
2023-04-22T15:52:10.000Z,714
2023-04-22T15:53:27.000Z,708
2023-04-22T15:54:43.000Z,697
2023-04-22T15:56:00.000Z,652
2023-04-22T15:57:16.000Z,596
2023-04-22T15:58:33.000Z,545
2023-04-22T15:59:49.000Z,506
2023-04-22T16:01:06.000Z,483
2023-04-22T16:02:23.000Z,466
2023-04-22T16:03:39.000Z,427
2023-04-22T16:04:56.000Z,388
2023-04-22T16:06:12.000Z,365
2023-04-22T16:07:29.000Z,365
2023-04-22T16:08:44.000Z,371
2023-04-22T16:10:01.000Z,376
2023-04-22T16:11:18.000Z,382
2023-04-22T16:12:34.000Z,399
2023-04-22T16:13:51.000Z,416
2023-04-22T16:15:07.000Z,427
2023-04-22T16:16:24.000Z,427
2023-04-22T16:17:40.000Z,410
2023-04-22T16:18:57.000Z,399
2023-04-22T16:20:13.000Z,393
2023-04-22T16:21:30.000Z,382
2023-04-22T16:22:46.000Z,354
2023-04-22T16:24:03.000Z,354
2023-04-22T16:25:19.000Z,348
2023-04-22T16:26:35.000Z,331
2023-04-22T16:27:52.000Z,303
2023-04-22T16:29:08.000Z,281
2023-04-22T16:30:25.000Z,258
2023-04-22T16:31:41.000Z,258
2023-04-22T16:32:58.000Z,258
2023-04-22T16:34:15.000Z,253
2023-04-22T16:35:31.000Z,247
2023-04-22T16:36:48.000Z,236
2023-04-22T16:38:04.000Z,225
2023-04-22T16:39:21.000Z,213
2023-04-22T16:40:37.000Z,202
2023-04-22T16:41:53.000Z,185
2023-04-22T16:43:10.000Z,191
2023-04-22T16:44:26.000Z,208
2023-04-22T16:45:43.000Z,219
2023-04-22T16:46:59.000Z,225
2023-04-22T16:48:16.000Z,230
2023-04-22T16:49:32.000Z,225
2023-04-22T16:50:49.000Z,219
2023-04-22T16:52:05.000Z,208
2023-04-22T16:53:22.000Z,196
2023-04-22T16:54:38.000Z,180
2023-04-22T16:55:55.000Z,157
2023-04-22T16:57:11.000Z,140
2023-04-22T16:58:27.000Z,129
2023-04-22T16:59:44.000Z,123
2023-04-22T17:01:00.000Z,123
2023-04-22T17:02:17.000Z,123
2023-04-22T17:03:33.000Z,123
2023-04-22T17:04:50.000Z,135
2023-04-22T17:06:07.000Z,151
2023-04-22T17:07:23.000Z,174
2023-04-22T17:08:40.000Z,191
2023-04-22T17:09:56.000Z,202
2023-04-22T17:11:13.000Z,202
2023-04-22T17:12:29.000Z,196
2023-04-22T17:13:46.000Z,196
2023-04-22T17:15:02.000Z,213
2023-04-22T17:16:18.000Z,241
2023-04-22T17:17:35.000Z,270
2023-04-22T17:18:51.000Z,275
2023-04-22T17:20:08.000Z,275
2023-04-22T17:21:24.000Z,253
2023-04-22T17:22:41.000Z,202
2023-04-22T17:23:57.000Z,157
2023-04-22T17:25:14.000Z,129
2023-04-22T17:26:30.000Z,129
2023-04-22T17:27:47.000Z,151
2023-04-22T17:29:03.000Z,174
2023-04-22T17:30:20.000Z,180
2023-04-22T17:31:37.000Z,191
2023-04-22T17:32:53.000Z,202
2023-04-22T17:34:09.000Z,219
2023-04-22T17:35:25.000Z,225
2023-04-22T17:36:42.000Z,219
2023-04-22T17:37:58.000Z,202
2023-04-22T17:39:15.000Z,196
2023-04-22T17:40:32.000Z,185
2023-04-22T17:41:48.000Z,168
2023-04-22T17:43:05.000Z,157
2023-04-22T17:44:21.000Z,146
2023-04-22T17:45:38.000Z,140
2023-04-22T17:46:54.000Z,140
2023-04-22T17:48:11.000Z,135
2023-04-22T17:49:27.000Z,135
2023-04-22T17:50:43.000Z,129
2023-04-22T17:51:59.000Z,129
2023-04-22T17:53:16.000Z,123
2023-04-22T17:54:32.000Z,118
2023-04-22T17:55:49.000Z,118
2023-04-22T17:57:05.000Z,106
2023-04-22T17:58:22.000Z,95
2023-04-22T17:59:38.000Z,78
2023-04-22T18:00:55.000Z,67
2023-04-22T18:02:11.000Z,61
2023-04-22T18:03:28.000Z,61
2023-04-22T18:04:44.000Z,56
2023-04-22T18:06:01.000Z,56
2023-04-22T18:07:17.000Z,56
2023-04-22T18:08:33.000Z,56
2023-04-22T18:09:50.000Z,56
2023-04-22T18:11:06.000Z,56
2023-04-22T18:12:23.000Z,56
2023-04-22T18:13:39.000Z,56
2023-04-22T18:14:56.000Z,50
2023-04-22T18:16:12.000Z,45
2023-04-22T18:17:29.000Z,45
2023-04-22T18:18:46.000Z,39
2023-04-22T18:22:35.000Z,28
2023-04-22T18:23:52.000Z,22
2023-04-22T18:25:07.000Z,22
2023-04-22T18:26:24.000Z,16
2023-04-22T18:27:41.000Z,16
2023-04-22T18:28:57.000Z,16
2023-04-22T18:30:14.000Z,11
2023-04-22T18:31:30.000Z,11
2023-04-22T18:32:47.000Z,11
2023-04-22T18:34:03.000Z,11
2023-04-22T18:35:20.000Z,11
2023-04-22T18:36:36.000Z,5
2023-04-22T18:37:53.000Z,5
2023-04-22T18:39:09.000Z,5
2023-04-22T18:40:26.000Z,5
2023-04-22T18:41:42.000Z,5
2023-04-22T18:42:58.000Z,5
2023-04-22T18:44:15.000Z,0
2023-04-22T18:46:48.000Z,0
2023-04-22T18:48:04.000Z,0
2023-04-22T18:49:20.000Z,0
2023-04-22T18:50:36.000Z,0
2023-04-22T18:53:09.000Z,0
2023-04-22T18:54:26.000Z,0
2023-04-22T18:55:42.000Z,0
2023-04-22T18:56:59.000Z,0
2023-04-22T18:58:15.000Z,0
2023-04-22T18:59:32.000Z,0
2023-04-22T19:00:48.000Z,0
2023-04-22T19:02:05.000Z,0
2023-04-22T19:03:21.000Z,0
2023-04-22T19:04:38.000Z,0
2023-04-22T19:05:54.000Z,0
2023-04-22T19:07:10.000Z,0
2023-04-22T19:09:43.000Z,0
2023-04-22T19:10:59.000Z,0
2023-04-22T19:12:15.000Z,0
2023-04-22T19:13:32.000Z,0
2023-04-22T19:14:48.000Z,0
2023-04-22T19:16:05.000Z,0
2023-04-22T19:17:21.000Z,0
2023-04-22T19:18:38.000Z,0
2023-04-22T19:19:54.000Z,0
2023-04-22T19:21:11.000Z,0
2023-04-22T19:22:27.000Z,0
2023-04-22T19:23:44.000Z,0
2023-04-22T19:25:00.000Z,0
2023-04-22T19:26:16.000Z,0
2023-04-22T19:28:49.000Z,0
2023-04-22T19:30:05.000Z,0
2023-04-22T19:31:22.000Z,0
2023-04-22T19:32:38.000Z,0
2023-04-22T19:33:55.000Z,0
2023-04-22T19:35:11.000Z,0
2023-04-22T19:36:28.000Z,0
2023-04-22T19:37:44.000Z,0
2023-04-22T19:39:01.000Z,0
2023-04-22T19:40:18.000Z,0
2023-04-22T19:41:34.000Z,0
2023-04-22T19:42:50.000Z,0
2023-04-22T19:44:06.000Z,0
2023-04-22T19:45:23.000Z,0
2023-04-22T19:46:39.000Z,0
2023-04-22T19:47:56.000Z,0
2023-04-22T19:49:13.000Z,0
2023-04-22T19:51:46.000Z,0
2023-04-22T19:53:02.000Z,0
2023-04-22T19:54:19.000Z,0
2023-04-22T19:55:35.000Z,0
2023-04-22T19:56:52.000Z,0
2023-04-22T19:58:08.000Z,0
2023-04-22T19:59:23.000Z,0
2023-04-22T20:00:40.000Z,0
2023-04-22T20:01:57.000Z,0
2023-04-22T20:03:13.000Z,0
2023-04-22T20:04:30.000Z,0
2023-04-22T20:05:46.000Z,0
2023-04-22T20:07:03.000Z,0
2023-04-22T20:08:19.000Z,0
2023-04-22T20:09:36.000Z,0
2023-04-22T20:10:52.000Z,0
2023-04-22T20:12:09.000Z,0
2023-04-22T20:13:25.000Z,0
2023-04-22T20:14:42.000Z,0
2023-04-22T20:15:58.000Z,0
2023-04-22T20:17:14.000Z,0
2023-04-22T20:18:31.000Z,0
2023-04-22T20:19:47.000Z,0
2023-04-22T20:21:04.000Z,0
2023-04-22T20:22:20.000Z,0
2023-04-22T20:23:37.000Z,0
2023-04-22T20:24:53.000Z,0
2023-04-22T20:26:10.000Z,0
2023-04-22T20:27:27.000Z,0
2023-04-22T20:28:43.000Z,0
2023-04-22T20:30:00.000Z,0
2023-04-22T20:31:16.000Z,0
2023-04-22T20:32:33.000Z,0
2023-04-22T20:33:48.000Z,0